createdAt,value
2018-08-04T00:01:33.939Z,6.83
2018-08-04T00:04:02.344Z,8.50
2018-08-04T00:06:33.469Z,7.73
2018-08-04T00:09:01.909Z,7.73
2018-08-04T00:11:30.395Z,9.10
2018-08-04T00:13:59.272Z,9.40
2018-08-04T00:16:27.728Z,7.23
2018-08-04T00:18:56.191Z,7.10
2018-08-04T00:21:24.612Z,8.77
2018-08-04T00:23:53.502Z,8.27
2018-08-04T00:26:22.038Z,8.70
2018-08-04T00:28:50.759Z,7.97
2018-08-04T00:31:19.203Z,8.73
2018-08-04T00:33:47.626Z,8.77
2018-08-04T00:36:16.451Z,7.87
2018-08-04T00:38:44.882Z,8.10
2018-08-04T00:41:13.366Z,7.87
2018-08-04T00:43:42.023Z,7.60
2018-08-04T00:46:10.431Z,8.23
2018-08-04T00:48:38.831Z,11.50
2018-08-04T00:51:07.279Z,7.00
2018-08-04T00:53:35.910Z,8.03
2018-08-04T00:56:04.519Z,7.70
2018-08-04T00:58:32.968Z,8.23
2018-08-04T01:01:01.342Z,11.97
2018-08-04T01:03:29.773Z,11.10
2018-08-04T01:05:58.264Z,7.93
2018-08-04T01:08:26.715Z,9.50
2018-08-04T01:10:55.431Z,8.57
2018-08-04T01:13:23.971Z,9.00
2018-08-04T01:15:52.375Z,9.53
2018-08-04T01:18:20.887Z,9.23
2018-08-04T01:20:49.410Z,7.60
2018-08-04T01:23:17.847Z,6.90
2018-08-04T01:25:46.270Z,9.83
2018-08-04T01:28:14.750Z,8.03
2018-08-04T01:30:43.387Z,8.07
2018-08-04T01:33:11.827Z,9.73
2018-08-04T01:35:40.741Z,8.13
2018-08-04T01:38:09.263Z,7.70
2018-08-04T01:40:37.714Z,11.83
2018-08-04T01:43:06.629Z,8.60
2018-08-04T01:45:35.115Z,8.90
2018-08-04T01:48:03.547Z,9.73
2018-08-04T01:50:31.975Z,9.50
2018-08-04T01:53:00.415Z,9.73
2018-08-04T01:55:28.816Z,8.93
2018-08-04T01:57:57.334Z,11.10
2018-08-04T02:00:25.775Z,9.30
2018-08-04T02:02:54.192Z,9.33
2018-08-04T02:05:22.620Z,15.70
2018-08-04T02:07:51.055Z,9.53
2018-08-04T02:10:19.570Z,8.90
2018-08-04T02:12:48.072Z,9.00
2018-08-04T02:15:16.427Z,10.50
2018-08-04T02:17:44.835Z,14.13
2018-08-04T02:20:13.211Z,8.73
2018-08-04T02:22:41.748Z,8.70
2018-08-04T02:25:10.151Z,9.13
2018-08-04T02:27:38.555Z,8.47
2018-08-04T02:30:07.007Z,9.67
2018-08-04T02:32:35.415Z,9.27
2018-08-04T02:35:04.259Z,8.17
2018-08-04T02:37:32.656Z,10.07
2018-08-04T02:40:01.083Z,10.07
2018-08-04T02:42:29.745Z,9.10
2018-08-04T02:44:58.221Z,9.53
2018-08-04T02:47:26.615Z,9.17
2018-08-04T02:49:55.151Z,8.93
2018-08-04T02:52:23.663Z,9.77
2018-08-04T02:54:52.346Z,10.70
2018-08-04T02:57:21.242Z,9.83
2018-08-04T02:59:49.635Z,9.90
2018-08-04T03:02:18.100Z,9.70
2018-08-04T03:04:46.560Z,10.20
2018-08-04T03:07:14.979Z,10.13
2018-08-04T03:09:43.379Z,10.03
2018-08-04T03:12:12.103Z,9.47
2018-08-04T03:14:40.503Z,11.17
2018-08-04T03:17:08.924Z,10.30
2018-08-04T03:19:37.778Z,13.37
2018-08-04T03:22:06.795Z,9.57
2018-08-04T03:24:35.275Z,9.60
2018-08-04T03:27:03.863Z,7.97
2018-08-04T03:29:32.271Z,9.83
2018-08-04T03:32:00.776Z,11.27
2018-08-04T03:34:29.510Z,11.77
2018-08-04T03:36:57.982Z,10.90
2018-08-04T03:39:26.397Z,9.20
2018-08-04T03:41:55.050Z,10.80
2018-08-04T03:44:23.470Z,8.40
2018-08-04T03:46:51.910Z,10.73
2018-08-04T03:49:20.451Z,9.10
2018-08-04T03:51:48.995Z,9.77
2018-08-04T03:54:17.400Z,10.13
2018-08-04T03:56:45.866Z,9.60
2018-08-04T03:59:14.263Z,9.67
2018-08-04T04:01:42.707Z,8.20
2018-08-04T04:04:11.206Z,9.40
2018-08-04T04:06:39.715Z,11.40
2018-08-04T04:09:09.764Z,10.23
2018-08-04T04:11:38.352Z,9.70
2018-08-04T04:14:06.948Z,10.07
2018-08-04T04:16:35.665Z,10.00
2018-08-04T04:19:04.420Z,10.20
2018-08-04T04:21:32.933Z,11.07
2018-08-04T04:24:01.536Z,10.90
2018-08-04T04:26:30.183Z,7.83
2018-08-04T04:28:58.602Z,10.90
2018-08-04T04:31:27.028Z,8.93
2018-08-04T04:33:56.139Z,10.83
2018-08-04T04:36:24.614Z,8.60
2018-08-04T04:38:53.195Z,9.60
2018-08-04T04:41:21.666Z,10.10
2018-08-04T04:43:50.024Z,10.37
2018-08-04T04:46:18.618Z,9.10
2018-08-04T04:48:47.471Z,9.43
2018-08-04T04:51:15.847Z,9.27
2018-08-04T04:53:44.399Z,9.33
2018-08-04T04:56:13.159Z,9.43
2018-08-04T04:58:41.699Z,9.27
2018-08-04T05:01:10.286Z,9.97
2018-08-04T05:03:38.929Z,11.23
2018-08-04T05:06:07.331Z,10.00
2018-08-04T05:08:35.863Z,9.80
2018-08-04T05:11:04.385Z,15.97
2018-08-04T05:13:32.832Z,11.33
2018-08-04T05:16:01.356Z,9.87
2018-08-04T05:18:29.823Z,9.67
2018-08-04T05:20:58.211Z,9.10
2018-08-04T05:23:26.628Z,9.37
2018-08-04T05:25:55.211Z,8.57
2018-08-04T05:28:23.608Z,9.97
2018-08-04T05:30:52.072Z,20.27
2018-08-04T05:33:20.894Z,16.23
2018-08-04T05:35:49.387Z,10.30
2018-08-04T05:38:17.776Z,10.83
2018-08-04T05:40:46.411Z,10.90
2018-08-04T05:43:14.978Z,10.90
2018-08-04T05:45:43.540Z,9.53
2018-08-04T05:48:12.222Z,10.03
2018-08-04T05:50:40.695Z,10.67
2018-08-04T05:53:09.167Z,9.13
2018-08-04T05:55:37.603Z,9.63
2018-08-04T05:58:06.407Z,10.77
2018-08-04T06:00:34.855Z,10.17
2018-08-04T06:03:03.480Z,8.57
2018-08-04T06:05:31.911Z,10.43
2018-08-04T06:08:00.315Z,8.30
2018-08-04T06:10:28.909Z,10.50
2018-08-04T06:12:57.419Z,10.67
2018-08-04T06:15:25.963Z,10.10
2018-08-04T06:17:54.559Z,12.83
2018-08-04T06:20:23.103Z,12.70
2018-08-04T06:22:51.715Z,8.77
2018-08-04T06:25:20.523Z,10.37
2018-08-04T06:27:48.987Z,10.30
2018-08-04T06:30:17.479Z,9.70
2018-08-04T06:32:45.907Z,10.37
2018-08-04T06:35:14.267Z,8.83
2018-08-04T06:37:42.679Z,8.73
2018-08-04T06:40:11.308Z,8.30
2018-08-04T06:42:39.743Z,8.50
2018-08-04T06:45:08.267Z,12.83
2018-08-04T06:47:36.788Z,11.83
2018-08-04T06:50:05.584Z,11.13
2018-08-04T06:52:34.111Z,8.97
2018-08-04T06:55:02.685Z,8.43
2018-08-04T06:57:31.087Z,9.20
2018-08-04T06:59:59.499Z,9.30
2018-08-04T07:02:28.192Z,9.17
2018-08-04T07:04:56.691Z,8.30
2018-08-04T07:07:25.151Z,8.10
2018-08-04T07:09:53.595Z,7.70
2018-08-04T07:12:22.095Z,8.47
2018-08-04T07:14:50.560Z,8.73
2018-08-04T07:17:19.450Z,8.63
2018-08-04T07:19:47.903Z,7.50
2018-08-04T07:22:16.477Z,7.20
2018-08-04T07:24:45.335Z,8.17
2018-08-04T07:27:13.728Z,9.30
2018-08-04T07:29:42.139Z,12.23
2018-08-04T07:32:10.731Z,7.97
2018-08-04T07:34:39.137Z,9.50
2018-08-04T07:37:07.882Z,7.10
2018-08-04T07:39:36.354Z,14.00
2018-08-04T07:42:04.843Z,18.17
2018-08-04T07:44:33.301Z,7.33
2018-08-04T07:47:02.089Z,10.97
2018-08-04T07:49:30.495Z,5.97
2018-08-04T07:51:58.919Z,5.83
2018-08-04T07:54:27.406Z,6.60
2018-08-04T07:56:55.815Z,6.80
2018-08-04T07:59:24.185Z,6.00
2018-08-04T08:01:53.150Z,6.60
2018-08-04T08:04:21.588Z,5.87
2018-08-04T08:06:50.072Z,6.93
2018-08-04T08:09:18.731Z,9.97
2018-08-04T08:11:47.219Z,7.37
2018-08-04T08:14:15.776Z,6.20
2018-08-04T08:16:44.432Z,6.17
2018-08-04T08:19:13.834Z,6.17
2018-08-04T08:21:42.227Z,7.27
2018-08-04T08:24:10.951Z,6.63
2018-08-04T08:26:39.432Z,5.83
2018-08-04T08:29:07.983Z,9.17
2018-08-04T08:31:36.552Z,7.23
2018-08-04T08:34:05.039Z,5.73
2018-08-04T08:36:33.503Z,6.83
2018-08-04T08:39:01.972Z,6.10
2018-08-04T08:41:30.436Z,6.67
2018-08-04T08:43:58.920Z,8.40
2018-08-04T08:46:27.340Z,7.60
2018-08-04T08:48:55.742Z,7.27
2018-08-04T08:51:24.143Z,11.50
2018-08-04T08:53:52.634Z,10.23
2018-08-04T08:56:20.931Z,8.20
2018-08-04T08:58:49.339Z,7.37
2018-08-04T09:01:18.057Z,8.37
2018-08-04T09:03:46.455Z,6.63
2018-08-04T09:06:15.132Z,7.20
2018-08-04T09:08:44.235Z,10.40
2018-08-04T09:11:12.698Z,7.20
2018-08-04T09:13:41.163Z,6.73
2018-08-04T09:16:09.719Z,12.53
2018-08-04T09:18:38.215Z,8.50
2018-08-04T09:21:06.622Z,7.27
2018-08-04T09:23:35.064Z,7.37
2018-08-04T09:26:03.552Z,7.27
2018-08-04T09:28:32.068Z,15.37
2018-08-04T09:31:00.556Z,10.33
2018-08-04T09:33:29.035Z,13.30
2018-08-04T09:35:57.491Z,10.93
2018-08-04T09:38:25.911Z,8.13
2018-08-04T09:40:54.323Z,6.77
2018-08-04T09:43:22.708Z,6.57
2018-08-04T09:45:51.359Z,10.23
2018-08-04T09:48:19.718Z,9.47
2018-08-04T09:50:48.084Z,7.90
2018-08-04T09:53:16.596Z,7.97
2018-08-04T09:55:45.087Z,7.70
2018-08-04T09:58:13.506Z,7.73
2018-08-04T10:00:47.230Z,8.60
2018-08-04T10:03:15.595Z,7.30
2018-08-04T10:05:44.023Z,7.63
2018-08-04T10:08:12.690Z,9.23
2018-08-04T10:10:41.152Z,7.57
2018-08-04T10:13:09.619Z,7.70
2018-08-04T10:15:38.195Z,7.57
2018-08-04T10:18:06.624Z,9.40
2018-08-04T10:20:35.039Z,7.73
2018-08-04T10:23:03.612Z,7.50
2018-08-04T10:25:32.091Z,6.47
2018-08-04T10:28:00.552Z,7.33
2018-08-04T10:30:29.027Z,9.43
2018-08-04T10:32:57.484Z,7.53
2018-08-04T10:35:25.939Z,7.17
2018-08-04T10:37:54.379Z,7.43
2018-08-04T10:40:22.991Z,7.07
2018-08-04T10:42:51.443Z,7.97
2018-08-04T10:45:19.879Z,7.27
2018-08-04T10:47:48.251Z,6.50
2018-08-04T10:50:16.732Z,6.37
2018-08-04T10:52:45.223Z,6.80
2018-08-04T10:55:13.739Z,7.30
2018-08-04T10:57:42.219Z,6.37
2018-08-04T11:00:11.271Z,7.93
2018-08-04T11:02:39.688Z,6.97
2018-08-04T11:05:08.534Z,7.07
2018-08-04T11:07:37.171Z,6.37
2018-08-04T11:10:06.083Z,7.40
2018-08-04T11:12:34.717Z,4.80
2018-08-04T11:15:03.283Z,13.97
2018-08-04T11:17:31.699Z,6.17
2018-08-04T11:20:00.179Z,5.60
2018-08-04T11:22:28.597Z,6.13
2018-08-04T11:24:57.069Z,5.90
2018-08-04T11:27:25.703Z,6.50
2018-08-04T11:29:54.282Z,8.07
2018-08-04T11:32:22.899Z,6.30
2018-08-04T11:34:51.303Z,6.40
2018-08-04T11:37:19.791Z,7.60
2018-08-04T11:39:48.298Z,6.77
2018-08-04T11:42:17.034Z,6.67
2018-08-04T11:44:45.682Z,7.50
2018-08-04T11:47:14.136Z,6.73
2018-08-04T11:49:42.707Z,5.87
2018-08-04T11:52:11.262Z,6.20
2018-08-04T11:54:39.691Z,6.47
2018-08-04T11:57:08.105Z,13.37
2018-08-04T11:59:36.788Z,6.60
2018-08-04T12:02:05.347Z,7.23
2018-08-04T12:04:33.778Z,7.10
2018-08-04T12:07:02.339Z,6.27
2018-08-04T12:09:30.779Z,6.37
2018-08-04T12:11:59.183Z,6.83
2018-08-04T12:14:27.891Z,14.40
2018-08-04T12:16:56.391Z,6.37
2018-08-04T12:19:24.838Z,7.57
2018-08-04T12:21:53.527Z,10.70
2018-08-04T12:24:22.073Z,6.87
2018-08-04T12:26:50.524Z,6.70
2018-08-04T12:29:18.995Z,7.07
2018-08-04T12:31:47.387Z,6.60
2018-08-04T12:34:15.811Z,6.10
2018-08-04T12:36:44.219Z,6.43
2018-08-04T12:39:12.819Z,5.50
2018-08-04T12:41:41.325Z,6.23
2018-08-04T12:44:10.496Z,6.97
2018-08-04T12:46:39.466Z,6.10
2018-08-04T12:49:08.458Z,6.27
2018-08-04T12:51:36.956Z,6.33
2018-08-04T12:54:05.411Z,5.80
2018-08-04T12:56:33.775Z,5.97
2018-08-04T12:59:02.476Z,8.70
2018-08-04T13:01:30.892Z,6.20
2018-08-04T13:03:59.389Z,6.60
2018-08-04T13:06:27.888Z,6.73
2018-08-04T13:08:56.434Z,5.73
2018-08-04T13:11:24.871Z,6.40
2018-08-04T13:13:53.475Z,6.27
2018-08-04T13:16:22.097Z,6.33
2018-08-04T13:18:50.498Z,7.00
2018-08-04T13:21:18.987Z,6.23
2018-08-04T13:23:47.393Z,5.80
2018-08-04T13:26:15.817Z,5.53
2018-08-04T13:28:44.725Z,6.40
2018-08-04T13:31:13.155Z,6.10
2018-08-04T13:33:41.546Z,6.30
2018-08-04T13:36:10.072Z,5.80
2018-08-04T13:38:38.467Z,6.13
2018-08-04T13:41:06.884Z,6.13
2018-08-04T13:43:35.468Z,5.90
2018-08-04T13:46:03.891Z,6.03
2018-08-04T13:48:32.417Z,5.80
2018-08-04T13:51:00.892Z,6.53
2018-08-04T13:53:29.350Z,6.13
2018-08-04T13:55:57.743Z,6.13
2018-08-04T13:58:26.427Z,6.93
2018-08-04T14:00:54.859Z,6.83
2018-08-04T14:03:23.695Z,6.40
2018-08-04T14:05:52.482Z,7.40
2018-08-04T14:08:20.959Z,5.40
2018-08-04T14:10:49.431Z,7.03
2018-08-04T14:13:18.201Z,5.97
2018-08-04T14:15:46.635Z,5.60
2018-08-04T14:18:15.108Z,6.07
2018-08-04T14:20:43.571Z,5.27
2018-08-04T14:23:11.991Z,5.63
2018-08-04T14:25:40.390Z,6.00
2018-08-04T14:28:08.819Z,5.57
2018-08-04T14:30:37.275Z,5.43
2018-08-04T14:33:05.684Z,5.73
2018-08-04T14:35:34.451Z,6.00
2018-08-04T14:38:02.902Z,5.17
2018-08-04T14:40:31.459Z,5.70
2018-08-04T14:43:00.051Z,5.67
2018-08-04T14:45:28.716Z,6.07
2018-08-04T14:47:57.191Z,5.80
2018-08-04T14:50:25.687Z,6.43
2018-08-04T14:52:54.386Z,5.27
2018-08-04T14:55:23.067Z,5.00
2018-08-04T14:57:51.591Z,4.83
2018-08-04T15:00:19.960Z,5.77
2018-08-04T15:02:48.352Z,5.03
2018-08-04T15:05:16.998Z,5.40
2018-08-04T15:07:45.475Z,5.07
2018-08-04T15:10:13.993Z,6.27
2018-08-04T15:12:42.579Z,5.83
2018-08-04T15:15:11.588Z,5.57
2018-08-04T15:17:40.183Z,5.57
2018-08-04T15:20:09.061Z,5.73
2018-08-04T15:22:37.651Z,5.30
2018-08-04T15:25:06.215Z,6.53
2018-08-04T15:27:35.195Z,6.00
2018-08-04T15:30:03.662Z,7.67
2018-08-04T15:32:32.339Z,5.33
2018-08-04T15:35:01.048Z,11.13
2018-08-04T15:37:29.852Z,5.83
2018-08-04T15:39:58.305Z,5.67
2018-08-04T15:42:26.827Z,5.93
2018-08-04T15:44:55.220Z,6.03
2018-08-04T15:47:23.615Z,6.23
2018-08-04T15:49:52.447Z,5.23
2018-08-04T15:52:20.867Z,6.27
2018-08-04T15:54:49.282Z,5.27
2018-08-04T15:57:17.795Z,5.60
2018-08-04T15:59:46.215Z,5.00
2018-08-04T16:02:14.611Z,5.40
2018-08-04T16:04:43.220Z,6.20
2018-08-04T16:07:11.624Z,5.27
2018-08-04T16:09:40.023Z,5.53
2018-08-04T16:12:08.559Z,7.10
2018-08-04T16:14:37.355Z,6.63
2018-08-04T16:17:05.811Z,5.67
2018-08-04T16:19:34.678Z,4.97
2018-08-04T16:22:03.107Z,5.60
2018-08-04T16:24:31.671Z,5.97
2018-08-04T16:27:00.243Z,4.50
2018-08-04T16:29:28.648Z,5.50
2018-08-04T16:31:57.074Z,6.13
2018-08-04T16:34:25.738Z,5.50
2018-08-04T16:36:54.148Z,5.03
2018-08-04T16:39:22.587Z,4.10
2018-08-04T16:41:51.139Z,10.00
2018-08-04T16:44:19.530Z,5.67
2018-08-04T16:46:47.953Z,4.83
2018-08-04T16:49:16.469Z,5.83
2018-08-04T16:51:44.892Z,4.90
2018-08-04T16:54:13.339Z,4.83
2018-08-04T16:56:41.887Z,7.87
2018-08-04T16:59:10.353Z,8.90
2018-08-04T17:01:39.047Z,4.43
2018-08-04T17:04:07.475Z,5.60
2018-08-04T17:06:36.000Z,7.47
2018-08-04T17:09:06.799Z,5.07
2018-08-04T17:11:35.246Z,4.53
2018-08-04T17:14:03.653Z,5.33
2018-08-04T17:16:32.113Z,3.90
2018-08-04T17:19:00.544Z,6.53
2018-08-04T17:21:29.243Z,9.87
2018-08-04T17:23:57.679Z,4.60
2018-08-04T17:26:26.112Z,4.73
2018-08-04T17:28:54.583Z,11.07
2018-08-04T17:31:23.071Z,10.70
2018-08-04T17:33:51.595Z,4.20
2018-08-04T17:36:19.998Z,3.90
2018-08-04T17:38:48.668Z,5.60
2018-08-04T17:41:17.077Z,3.40
2018-08-04T17:43:45.466Z,3.20
2018-08-04T17:46:13.939Z,3.90
2018-08-04T17:48:42.346Z,3.20
2018-08-04T17:51:10.735Z,3.17
2018-08-04T17:53:39.300Z,7.90
2018-08-04T17:56:07.719Z,3.37
2018-08-04T17:58:36.207Z,3.73
2018-08-04T18:01:04.663Z,3.73
2018-08-04T18:03:33.095Z,2.67
2018-08-04T18:06:01.496Z,2.70
2018-08-04T18:08:30.142Z,3.57
2018-08-04T18:10:58.515Z,3.13
2018-08-04T18:13:26.982Z,8.93
2018-08-04T18:15:55.639Z,6.00
2018-08-04T18:18:24.191Z,3.60
2018-08-04T18:20:52.758Z,3.00
2018-08-04T18:23:21.384Z,2.53
2018-08-04T18:25:49.834Z,2.87
2018-08-04T18:28:18.228Z,3.10
2018-08-04T18:30:46.814Z,5.67
2018-08-04T18:33:15.219Z,2.43
2018-08-04T18:35:43.710Z,1.90
2018-08-04T18:38:12.268Z,4.13
2018-08-04T18:40:40.739Z,2.17
2018-08-04T18:43:09.150Z,2.50
2018-08-04T18:45:37.980Z,2.00
2018-08-04T18:48:06.429Z,1.97
2018-08-04T18:50:34.835Z,3.63
2018-08-04T18:53:03.366Z,2.83
2018-08-04T18:55:31.708Z,2.90
2018-08-04T18:58:00.201Z,9.73
2018-08-04T19:00:28.680Z,8.40
2018-08-04T19:02:57.162Z,2.30
2018-08-04T19:05:25.527Z,3.10
2018-08-04T19:07:54.194Z,1.93
2018-08-04T19:10:22.687Z,1.90
2018-08-04T19:12:51.139Z,2.07
2018-08-04T19:15:19.815Z,1.93
2018-08-04T19:17:48.194Z,1.90
2018-08-04T19:20:16.659Z,3.00
2018-08-04T19:22:45.283Z,1.70
2018-08-04T19:25:13.638Z,1.90
2018-08-04T19:27:42.043Z,4.50
2018-08-04T19:30:10.523Z,3.10
2018-08-04T19:32:38.990Z,3.73
2018-08-04T19:35:07.436Z,1.67
2018-08-04T19:37:36.043Z,3.17
2018-08-04T19:40:04.884Z,2.10
2018-08-04T19:42:33.387Z,1.90
2018-08-04T19:45:01.780Z,3.60
2018-08-04T19:47:30.181Z,3.27
2018-08-04T19:49:58.683Z,3.33
2018-08-04T19:52:27.159Z,2.17
2018-08-04T19:54:55.610Z,2.30
2018-08-04T19:57:24.003Z,1.70
2018-08-04T19:59:52.598Z,1.87
2018-08-04T20:02:21.047Z,9.40
2018-08-04T20:04:49.458Z,2.27
2018-08-04T20:07:18.094Z,3.80
2018-08-04T20:09:46.539Z,1.93
2018-08-04T20:12:15.023Z,2.80
2018-08-04T20:14:43.734Z,5.70
2018-08-04T20:17:12.207Z,1.60
2018-08-04T20:19:40.691Z,2.60
2018-08-04T20:22:14.089Z,3.50
2018-08-04T20:24:42.638Z,1.43
2018-08-04T20:27:11.087Z,2.70
2018-08-04T20:29:39.866Z,1.70
2018-08-04T20:32:08.687Z,3.97
2018-08-04T20:34:37.055Z,2.13
2018-08-04T20:37:05.527Z,3.07
2018-08-04T20:39:34.060Z,9.27
2018-08-04T20:42:02.595Z,1.63
2018-08-04T20:44:31.343Z,4.00
2018-08-04T20:46:59.826Z,1.90
2018-08-04T20:49:28.335Z,3.60
2018-08-04T20:51:56.874Z,2.67
2018-08-04T20:54:25.244Z,8.20
2018-08-04T20:56:53.767Z,4.30
2018-08-04T20:59:22.363Z,1.57
2018-08-04T21:02:00.231Z,1.63
2018-08-04T21:04:29.923Z,2.23
2018-08-04T21:06:58.524Z,1.93
2018-08-04T21:09:26.981Z,1.50
2018-08-04T21:11:56.543Z,1.90
2018-08-04T21:14:26.152Z,2.50
2018-08-04T21:16:55.403Z,1.93
2018-08-04T21:19:24.635Z,2.80
2018-08-04T21:21:53.207Z,2.80
2018-08-04T21:24:22.867Z,5.63
2018-08-04T21:26:52.692Z,1.90
2018-08-04T21:29:21.698Z,1.40
2018-08-04T21:31:50.160Z,4.00
2018-08-04T21:34:18.822Z,4.63
2018-08-04T21:36:47.383Z,4.53
2018-08-04T21:39:17.219Z,2.20
2018-08-04T21:41:46.714Z,1.70
2018-08-04T21:44:15.688Z,1.90
2018-08-04T21:46:50.156Z,2.10
2018-08-04T21:49:19.041Z,1.47
2018-08-04T21:51:48.597Z,2.20
2018-08-04T21:54:19.921Z,1.33
2018-08-04T21:56:46.779Z,1.73
2018-08-04T21:59:15.282Z,3.10
2018-08-04T22:01:49.221Z,5.47
2018-08-04T22:04:17.651Z,2.40
2018-08-04T22:07:59.127Z,3.63
2018-08-04T22:10:27.640Z,1.87
2018-08-04T22:12:56.305Z,2.17
2018-08-04T22:15:24.797Z,1.97
2018-08-04T22:17:53.267Z,2.37
2018-08-04T22:20:22.511Z,2.30
2018-08-04T22:22:51.111Z,5.57
2018-08-04T22:25:20.931Z,2.07
2018-08-04T22:27:49.400Z,1.53
2018-08-04T22:30:19.153Z,2.20
2018-08-04T22:32:48.163Z,2.90
2018-08-04T22:35:16.634Z,2.30
2018-08-04T22:37:45.187Z,2.03
2018-08-04T22:40:14.867Z,1.83
2018-08-04T22:42:43.667Z,3.20
2018-08-04T22:46:22.021Z,1.80
2018-08-04T22:48:51.842Z,2.90
2018-08-04T22:51:23.346Z,1.67
2018-08-04T22:53:51.832Z,4.33
2018-08-04T22:56:20.246Z,3.60
2018-08-04T22:58:48.763Z,2.50
2018-08-04T23:01:17.276Z,3.20
2018-08-04T23:06:14.451Z,4.70
2018-08-04T23:08:42.928Z,1.70
2018-08-04T23:11:11.414Z,3.10
2018-08-04T23:13:39.825Z,3.40
2018-08-04T23:16:08.366Z,2.40
2018-08-04T23:18:36.822Z,1.70
2018-08-04T23:21:05.475Z,1.70
2018-08-04T23:23:33.995Z,2.70
2018-08-04T23:26:02.463Z,1.67
2018-08-04T23:28:30.892Z,1.50
2018-08-04T23:30:59.286Z,3.00
2018-08-04T23:33:27.734Z,2.90
2018-08-04T23:35:56.274Z,1.80
2018-08-04T23:38:24.769Z,1.83
2018-08-04T23:40:53.220Z,1.93
2018-08-04T23:43:21.661Z,2.73
2018-08-04T23:45:50.179Z,1.53
2018-08-04T23:48:18.615Z,3.47
2018-08-04T23:50:47.286Z,1.97
2018-08-04T23:53:16.822Z,1.63
2018-08-04T23:55:45.211Z,4.50
2018-08-04T23:58:13.692Z,3.43
